Time;durP1;ratioP1;P1;durP2;ratioP2;P2;SDS_P1;SDS_P2;PMS_P1;PMS_P2;Temp;Humidity;BMP_temperature;BMP_pressure;BME280_temperature;BME280_humidity;BME280_pressure;Samples;Min_cycle;Max_cycle;Signal;HPM_P1;HPM_P2
2022/10/27 00:00:35;;;;;;;0.40;0.40;;;11.60;99.90;;;;;;5073977;28;20587;-71
2022/10/27 00:03:02;;;;;;;0.30;0.30;;;11.60;99.90;;;;;;5074330;28;20166;-70
2022/10/27 00:05:28;;;;;;;0.32;0.32;;;11.50;99.90;;;;;;5074839;28;20181;-69
2022/10/27 00:07:54;;;;;;;0.60;0.50;;;11.50;99.90;;;;;;5074701;28;20162;-69
2022/10/27 00:10:20;;;;;;;0.30;0.30;;;11.50;99.90;;;;;;5074212;28;20219;-69
2022/10/27 00:12:46;;;;;;;0.90;0.90;;;11.50;99.90;;;;;;5074355;28;20208;-70
2022/10/27 00:15:12;;;;;;;1.03;1.03;;;11.50;99.90;;;;;;5074451;28;20491;-71
2022/10/27 00:17:38;;;;;;;0.43;0.43;;;11.60;99.90;;;;;;5074453;28;20169;-69
2022/10/27 00:20:05;;;;;;;0.50;0.50;;;11.60;99.90;;;;;;5074212;28;20545;-70
2022/10/27 00:22:30;;;;;;;0.50;0.50;;;11.70;99.90;;;;;;5074479;28;20407;-71
2022/10/27 00:24:56;;;;;;;0.60;0.47;;;11.80;99.90;;;;;;5074391;28;20174;-71
2022/10/27 00:27:22;;;;;;;1.40;1.40;;;11.70;99.90;;;;;;5074078;28;20181;-68
2022/10/27 00:29:47;;;;;;;0.30;0.30;;;11.60;99.90;;;;;;5073964;28;20185;-70
2022/10/27 00:32:13;;;;;;;1.13;0.93;;;11.50;99.90;;;;;;5074029;28;20201;-71
2022/10/27 00:34:39;;;;;;;1.33;1.33;;;11.50;99.90;;;;;;5074264;28;20172;-70
2022/10/27 00:37:04;;;;;;;1.70;0.83;;;11.60;99.90;;;;;;5074147;28;20168;-68
2022/10/27 00:39:30;;;;;;;1.43;1.37;;;11.60;99.90;;;;;;5073873;28;20181;-70
2022/10/27 00:41:56;;;;;;;0.93;0.70;;;11.70;99.90;;;;;;5074050;28;20177;-70
2022/10/27 00:44:35;;;;;;;2.37;2.20;;;11.70;99.90;;;;;;5073966;28;20169;-71
2022/10/27 00:47:15;;;;;;;1.25;1.25;;;11.70;99.90;;;;;;5074244;28;20223;-68
2022/10/27 00:49:53;;;;;;;0.70;0.70;;;11.60;99.90;;;;;;5073707;28;20632;-70
2022/10/27 00:52:33;;;;;;;0.45;0.45;;;11.50;99.90;;;;;;5073644;28;20439;-70
2022/10/27 00:55:08;;;;;;;0.70;0.70;;;11.50;99.90;;;;;;5074005;28;20223;-68
2022/10/27 00:57:34;;;;;;;2.30;2.10;;;11.60;99.90;;;;;;5073950;28;20158;-68
2022/10/27 01:00:03;;;;;;;0.50;0.50;;;11.60;99.90;;;;;;5073549;28;20658;-68
2022/10/27 01:02:30;;;;;;;0.40;0.40;;;11.60;99.90;;;;;;5073673;28;20426;-69
2022/10/27 01:05:09;;;;;;;0.50;0.50;;;11.60;99.90;;;;;;5073747;28;20503;-71
2022/10/27 01:07:35;;;;;;;0.40;0.40;;;11.60;99.90;;;;;;5073521;28;20494;-68
2022/10/27 01:10:02;;;;;;;0.68;0.60;;;11.60;99.90;;;;;;5073548;28;20435;-71
2022/10/27 01:12:27;;;;;;;0.50;0.50;;;11.60;99.90;;;;;;5073332;28;20565;-70
2022/10/27 01:14:53;;;;;;;0.30;0.30;;;11.60;99.90;;;;;;5073702;28;20400;-68
2022/10/27 01:17:41;;;;;;;0.40;0.37;;;11.60;99.90;;;;;;5073621;28;20294;-70
2022/10/27 01:20:36;;;;;;;0.73;0.73;;;11.60;99.90;;;;;;5073373;28;20256;-70
2022/10/27 01:23:35;;;;;;;0.50;0.50;;;11.60;99.90;;;;;;5073603;28;20470;-70
2022/10/27 01:26:38;;;;;;;0.80;0.80;;;11.50;99.90;;;;;;5073331;28;20192;-70
2022/10/27 01:29:06;;;;;;;1.30;1.05;;;11.60;99.90;;;;;;5073122;28;20225;-70
2022/10/27 01:32:06;;;;;;;2.85;0.50;;;11.60;99.90;;;;;;5073446;28;20229;-69
2022/10/27 01:34:48;;;;;;;1.30;1.20;;;11.50;99.90;;;;;;5055863;28;20181;-69
2022/10/27 01:37:24;;;;;;;5.35;0.65;;;11.50;99.90;;;;;;5073443;28;20186;-69
2022/10/27 01:39:58;;;;;;;0.50;0.50;;;11.50;99.90;;;;;;5073198;28;20181;-69
2022/10/27 01:42:31;;;;;;;0.52;0.52;;;11.60;99.90;;;;;;5073491;28;20196;-70
2022/10/27 01:44:58;;;;;;;0.65;0.65;;;11.50;99.90;;;;;;5073429;28;20570;-70
2022/10/27 01:47:25;;;;;;;0.50;0.50;;;11.50;99.90;;;;;;5073315;28;20264;-69
2022/10/27 01:49:53;;;;;;;1.15;0.93;;;11.50;99.90;;;;;;5072967;28;20186;-70
2022/10/27 01:52:54;;;;;;;5.18;1.67;;;11.60;99.90;;;;;;5073337;28;20246;-70
2022/10/27 01:55:26;;;;;;;0.30;0.30;;;11.60;99.90;;;;;;4972616;28;20295;-71
2022/10/27 01:58:30;;;;;;;0.30;0.30;;;11.50;99.90;;;;;;5056686;28;20185;-72
2022/10/27 02:01:32;;;;;;;0.60;0.60;;;11.50;99.90;;;;;;5073132;28;20227;-70
2022/10/27 02:04:19;;;;;;;0.68;0.68;;;11.50;99.90;;;;;;5073106;28;20215;-68
2022/10/27 02:06:51;;;;;;;0.30;0.30;;;11.60;99.90;;;;;;5073105;28;20198;-70
2022/10/27 02:09:27;;;;;;;0.73;0.73;;;11.60;99.90;;;;;;5072836;28;20250;-69
2022/10/27 02:11:56;;;;;;;2.15;0.50;;;11.60;99.90;;;;;;5073381;28;20200;-69
2022/10/27 02:14:23;;;;;;;0.63;0.57;;;11.60;99.90;;;;;;5072981;28;20173;-70
2022/10/27 02:16:53;;;;;;;0.30;0.30;;;11.60;99.90;;;;;;5073031;28;20161;-70
2022/10/27 02:19:24;;;;;;;0.77;0.77;;;11.50;99.90;;;;;;5072742;28;20283;-70
2022/10/27 02:21:53;;;;;;;0.68;0.68;;;11.50;99.90;;;;;;5073090;28;20170;-69
2022/10/27 02:24:19;;;;;;;1.13;1.02;;;11.50;99.90;;;;;;5073505;28;20579;-70
2022/10/27 02:27:00;;;;;;;1.17;1.15;;;11.60;99.90;;;;;;5076419;28;20197;-69
2022/10/27 02:29:39;;;;;;;1.60;1.50;;;11.60;99.90;;;;;;5076446;28;20595;-71
2022/10/27 02:32:09;;;;;;;2.53;2.33;;;11.60;99.90;;;;;;5076586;28;20252;-70
2022/10/27 02:34:37;;;;;;;0.40;0.40;;;11.70;99.90;;;;;;5076542;28;20445;-70
2022/10/27 02:37:04;;;;;;;0.50;0.50;;;11.60;99.90;;;;;;5076348;28;20174;-70
2022/10/27 02:39:30;;;;;;;1.80;0.75;;;11.60;99.90;;;;;;5076329;28;20576;-71
2022/10/27 02:41:56;;;;;;;1.23;1.03;;;11.50;99.90;;;;;;5076350;28;20239;-68
2022/10/27 02:44:21;;;;;;;1.27;1.27;;;11.50;99.90;;;;;;5076309;28;20400;-70
2022/10/27 02:46:47;;;;;;;0.70;0.70;;;11.50;99.90;;;;;;5075782;28;20519;-69
2022/10/27 02:49:12;;;;;;;0.30;0.30;;;11.40;99.90;;;;;;5075863;28;20682;-70
2022/10/27 02:51:38;;;;;;;0.67;0.67;;;11.40;99.90;;;;;;5075990;28;20245;-69
2022/10/27 02:54:04;;;;;;;0.50;0.40;;;11.40;99.90;;;;;;5076258;28;20248;-71
2022/10/27 02:56:29;;;;;;;0.40;0.40;;;11.50;99.90;;;;;;5076233;28;20169;-68
2022/10/27 02:58:55;;;;;;;2.20;0.50;;;11.50;99.90;;;;;;5075932;28;20185;-69
2022/10/27 03:01:20;;;;;;;0.30;0.30;;;11.50;99.90;;;;;;5076114;28;20173;-70
2022/10/27 03:03:46;;;;;;;0.50;0.50;;;;;;;;;;5076511;28;20248;-69
2022/10/27 03:06:12;;;;;;;0.50;0.50;;;11.40;99.90;;;;;;5075809;28;20623;-71
2022/10/27 03:08:38;;;;;;;1.27;1.23;;;11.20;99.90;;;;;;5075732;28;20415;-68
2022/10/27 03:11:03;;;;;;;1.13;0.60;;;11.40;99.90;;;;;;5075611;28;20270;-71
2022/10/27 03:13:29;;;;;;;0.50;0.50;;;11.50;99.90;;;;;;5075837;28;20635;-71
2022/10/27 03:15:55;;;;;;;0.77;0.77;;;11.60;99.90;;;;;;5075787;28;20248;-71
2022/10/27 03:18:20;;;;;;;0.50;0.50;;;11.70;99.90;;;;;;5075523;28;20617;-71
2022/10/27 03:20:46;;;;;;;0.50;0.50;;;11.70;99.90;;;;;;5075323;28;20272;-71
2022/10/27 03:23:12;;;;;;;0.77;0.77;;;;;;;;;;5075560;28;20173;-71
2022/10/27 03:25:42;;;;;;;6.70;1.27;;;11.70;99.90;;;;;;5075455;28;20639;-70
2022/10/27 03:28:11;;;;;;;0.40;0.40;;;11.70;99.90;;;;;;5075627;28;20487;-71
2022/10/27 03:30:38;;;;;;;2.47;0.77;;;11.80;99.90;;;;;;5074977;28;20427;-70
2022/10/27 03:33:04;;;;;;;0.50;0.50;;;11.60;99.90;;;;;;5075554;28;20204;-68
2022/10/27 03:35:30;;;;;;;0.30;0.30;;;11.60;99.90;;;;;;5075375;28;20618;-71
2022/10/27 03:37:58;;;;;;;0.40;0.40;;;11.60;99.90;;;;;;5073946;28;20642;-71
2022/10/27 03:40:25;;;;;;;0.30;0.30;;;11.70;99.90;;;;;;5074907;28;20709;-70
2022/10/27 03:42:52;;;;;;;0.30;0.30;;;11.70;99.90;;;;;;5075306;28;20649;-69
2022/10/27 03:45:18;;;;;;;0.60;0.57;;;11.80;99.90;;;;;;5075071;28;20418;-71
2022/10/27 03:47:44;;;;;;;0.40;0.40;;;11.80;99.90;;;;;;5075037;28;20407;-71
2022/10/27 03:50:09;;;;;;;5.73;0.77;;;11.80;99.90;;;;;;5074784;28;20427;-69
2022/10/27 03:52:35;;;;;;;2.03;1.10;;;11.80;99.90;;;;;;5074955;28;20201;-71
2022/10/27 03:55:01;;;;;;;2.33;2.23;;;11.80;99.90;;;;;;5075048;28;20166;-70
2022/10/27 03:57:26;;;;;;;0.87;0.87;;;11.70;99.90;;;;;;5074966;28;20219;-69
2022/10/27 03:59:52;;;;;;;0.60;0.60;;;11.80;99.90;;;;;;5074608;28;20189;-70
2022/10/27 04:02:18;;;;;;;0.60;0.60;;;11.80;99.90;;;;;;5074727;28;20169;-71
2022/10/27 04:04:43;;;;;;;0.70;0.70;;;11.70;99.90;;;;;;5074735;28;20204;-70
2022/10/27 04:07:09;;;;;;;0.50;0.50;;;11.60;99.90;;;;;;5074587;28;20177;-71
2022/10/27 04:09:35;;;;;;;3.93;1.07;;;11.60;99.90;;;;;;5074432;28;20647;-69
2022/10/27 04:12:00;;;;;;;0.93;0.90;;;11.60;99.90;;;;;;5074603;28;20194;-70
2022/10/27 04:14:26;;;;;;;1.13;0.70;;;11.70;99.90;;;;;;5074646;28;20627;-70
2022/10/27 04:16:51;;;;;;;1.17;1.17;;;11.70;99.90;;;;;;5074435;28;20619;-69
2022/10/27 04:19:20;;;;;;;0.50;0.40;;;11.70;99.90;;;;;;5074118;28;20662;-69
2022/10/27 04:21:46;;;;;;;1.63;1.10;;;11.70;99.90;;;;;;5074404;28;20181;-70
2022/10/27 04:24:12;;;;;;;0.40;0.40;;;11.60;99.90;;;;;;5074480;28;20234;-71
2022/10/27 04:26:38;;;;;;;0.67;0.67;;;11.50;99.90;;;;;;5074160;28;20189;-70
2022/10/27 04:29:04;;;;;;;0.60;0.60;;;11.50;99.90;;;;;;5074096;28;20189;-67
2022/10/27 04:31:31;;;;;;;0.60;0.57;;;11.50;99.90;;;;;;5074186;28;20591;-70
2022/10/27 04:33:58;;;;;;;1.00;0.87;;;11.50;99.90;;;;;;5074174;28;20165;-70
2022/10/27 04:36:24;;;;;;;0.40;0.40;;;11.50;99.90;;;;;;5074169;28;20162;-71
2022/10/27 04:38:50;;;;;;;1.17;1.08;;;11.60;99.90;;;;;;5073870;28;20193;-70
2022/10/27 04:41:15;;;;;;;1.02;0.88;;;11.60;99.90;;;;;;5074148;28;20205;-70
2022/10/27 04:43:41;;;;;;;0.70;0.70;;;11.60;99.90;;;;;;5074093;28;20174;-69
2022/10/27 04:46:07;;;;;;;0.80;0.80;;;11.70;99.90;;;;;;5074049;28;20195;-71
2022/10/27 04:48:32;;;;;;;1.77;1.33;;;11.50;99.90;;;;;;5073495;28;20165;-71
2022/10/27 04:50:58;;;;;;;1.07;1.07;;;11.60;99.90;;;;;;5073649;28;20200;-69
2022/10/27 04:53:23;;;;;;;0.53;0.53;;;11.60;99.90;;;;;;5073915;28;20256;-69
2022/10/27 04:55:51;;;;;;;0.70;0.70;;;11.70;99.90;;;;;;5073930;28;20172;-71
2022/10/27 04:58:17;;;;;;;0.30;0.30;;;11.70;99.90;;;;;;5073651;28;20161;-69
2022/10/27 05:00:42;;;;;;;4.33;1.87;;;11.60;99.90;;;;;;5073401;28;20411;-68
2022/10/27 05:03:08;;;;;;;0.40;0.40;;;11.60;99.90;;;;;;5073587;28;20641;-71
2022/10/27 05:05:34;;;;;;;1.10;1.00;;;11.50;99.90;;;;;;5073594;28;20169;-71
2022/10/27 05:08:01;;;;;;;0.40;0.40;;;11.50;99.90;;;;;;5073762;28;20396;-69
2022/10/27 05:10:29;;;;;;;0.70;0.70;;;11.50;99.90;;;;;;5073317;28;20604;-70
2022/10/27 05:12:55;;;;;;;6.20;0.50;;;11.50;99.90;;;;;;5073401;28;20197;-70
2022/10/27 05:15:21;;;;;;;0.40;0.40;;;11.50;99.90;;;;;;5073715;28;20596;-70
2022/10/27 05:17:47;;;;;;;0.57;0.57;;;11.50;99.90;;;;;;5073440;28;20170;-70
2022/10/27 05:20:13;;;;;;;0.93;0.93;;;11.50;99.90;;;;;;5073181;28;20199;-69
2022/10/27 05:22:39;;;;;;;0.40;0.40;;;11.50;99.90;;;;;;5073651;28;20175;-71
2022/10/27 05:25:09;;;;;;;0.77;0.77;;;11.50;99.90;;;;;;5073491;28;20256;-70
2022/10/27 05:27:35;;;;;;;1.05;1.05;;;11.60;99.90;;;;;;5073469;28;20173;-71
2022/10/27 05:30:01;;;;;;;0.77;0.77;;;11.50;99.90;;;;;;5073275;28;20564;-68
2022/10/27 05:32:27;;;;;;;0.37;0.37;;;11.60;99.90;;;;;;5073375;28;20193;-69
2022/10/27 05:34:52;;;;;;;0.30;0.30;;;11.60;99.90;;;;;;5073487;28;20956;-69
2022/10/27 05:37:18;;;;;;;0.40;0.40;;;11.50;99.90;;;;;;5073508;28;20209;-68
2022/10/27 05:39:44;;;;;;;0.93;0.93;;;11.50;99.90;;;;;;5073053;28;20185;-71
2022/10/27 05:42:09;;;;;;;2.20;2.10;;;11.50;99.90;;;;;;5073272;28;20173;-71
2022/10/27 05:44:35;;;;;;;0.50;0.50;;;11.40;99.90;;;;;;5073200;28;20177;-70
2022/10/27 05:47:01;;;;;;;0.50;0.50;;;11.40;99.90;;;;;;5073450;28;20180;-69
2022/10/27 05:49:26;;;;;;;0.97;0.97;;;11.40;99.90;;;;;;5073108;28;20193;-69
2022/10/27 05:51:52;;;;;;;0.60;0.60;;;11.40;99.90;;;;;;5073278;28;20240;-68
2022/10/27 05:54:18;;;;;;;0.37;0.37;;;11.40;99.90;;;;;;5073313;28;20181;-70
2022/10/27 05:56:44;;;;;;;0.50;0.50;;;11.40;99.90;;;;;;5073623;28;20162;-68
2022/10/27 05:59:10;;;;;;;0.38;0.38;;;11.50;99.90;;;;;;5073313;28;20217;-69
2022/10/27 06:01:36;;;;;;;0.63;0.63;;;11.50;99.90;;;;;;5077320;28;20181;-69
2022/10/27 06:04:02;;;;;;;0.40;0.40;;;11.50;99.90;;;;;;5077376;28;20169;-69
2022/10/27 06:06:28;;;;;;;0.40;0.40;;;11.50;99.90;;;;;;5077082;28;20502;-70
2022/10/27 06:08:53;;;;;;;1.37;1.27;;;11.50;99.90;;;;;;5076570;28;20424;-70
2022/10/27 06:11:19;;;;;;;0.87;0.87;;;11.50;99.90;;;;;;5076998;28;20317;-70
2022/10/27 06:13:48;;;;;;;0.60;0.60;;;11.40;99.90;;;;;;5076708;28;20173;-70
2022/10/27 06:16:14;;;;;;;1.15;1.05;;;11.40;99.90;;;;;;5077125;28;20169;-71
2022/10/27 06:18:40;;;;;;;0.30;0.30;;;11.30;99.90;;;;;;5076728;28;20181;-69
2022/10/27 06:21:05;;;;;;;0.30;0.30;;;11.50;99.90;;;;;;5076697;28;20181;-71
2022/10/27 06:23:31;;;;;;;0.30;0.30;;;11.50;99.90;;;;;;5076755;28;20234;-69
2022/10/27 06:25:57;;;;;;;0.53;0.53;;;11.50;99.90;;;;;;5076430;28;20197;-68
2022/10/27 06:28:22;;;;;;;0.77;0.77;;;11.50;99.90;;;;;;5076715;28;20174;-69
2022/10/27 06:30:48;;;;;;;1.90;0.87;;;11.50;99.90;;;;;;5076107;28;20208;-71
2022/10/27 06:33:13;;;;;;;0.60;0.60;;;11.50;99.90;;;;;;5076651;28;20166;-70
2022/10/27 06:35:39;;;;;;;0.40;0.40;;;11.50;99.90;;;;;;5076563;28;20194;-69
2022/10/27 06:38:05;;;;;;;1.63;1.53;;;11.50;99.90;;;;;;5076430;28;20197;-68
2022/10/27 06:40:30;;;;;;;0.60;0.60;;;11.50;99.90;;;;;;5076132;28;20554;-69
2022/10/27 06:42:56;;;;;;;2.30;2.10;;;11.50;99.90;;;;;;5076284;28;20180;-69
2022/10/27 06:45:21;;;;;;;1.77;1.70;;;11.40;99.90;;;;;;5076386;28;20165;-69
2022/10/27 06:48:00;;;;;;;1.63;0.93;;;11.40;99.90;;;;;;5076418;28;20174;-70
2022/10/27 06:50:26;;;;;;;0.37;0.37;;;11.40;99.90;;;;;;5075870;28;20194;-71
2022/10/27 06:52:52;;;;;;;0.80;0.80;;;11.50;99.90;;;;;;5076168;28;20777;-71
2022/10/27 06:55:18;;;;;;;0.30;0.30;;;11.60;99.90;;;;;;5076254;28;20180;-70
2022/10/27 06:57:44;;;;;;;0.70;0.70;;;11.60;99.90;;;;;;5076228;28;20869;-71
2022/10/27 07:00:10;;;;;;;0.40;0.40;;;11.60;99.90;;;;;;5075702;28;20428;-70
2022/10/27 07:02:36;;;;;;;0.93;0.93;;;11.70;99.90;;;;;;5076053;28;20178;-71
2022/10/27 07:05:03;;;;;;;1.27;0.93;;;11.90;99.90;;;;;;5075859;28;20404;-69
2022/10/27 07:07:28;;;;;;;0.30;0.30;;;11.90;99.90;;;;;;5076504;28;20668;-69
2022/10/27 07:09:54;;;;;;;0.67;0.67;;;12.00;99.90;;;;;;5075114;28;20518;-69
2022/10/27 07:12:20;;;;;;;1.07;0.83;;;12.10;99.90;;;;;;5075707;28;20560;-70
2022/10/27 07:14:45;;;;;;;1.60;1.53;;;12.10;99.90;;;;;;5075784;28;20174;-69
2022/10/27 07:17:11;;;;;;;0.60;0.60;;;12.20;99.90;;;;;;5075778;28;20169;-71
2022/10/27 07:19:36;;;;;;;0.57;0.57;;;12.40;99.90;;;;;;5075458;28;20185;-71
2022/10/27 07:22:02;;;;;;;1.47;1.37;;;13.00;99.90;;;;;;5075679;28;20181;-68
2022/10/27 07:24:28;;;;;;;2.87;2.10;;;13.90;99.90;;;;;;5075539;28;20177;-68
2022/10/27 07:26:53;;;;;;;0.93;0.83;;;14.90;99.90;;;;;;5075428;28;20587;-69
2022/10/27 07:29:19;;;;;;;8.90;1.47;;;16.30;99.90;;;;;;5075164;28;20280;-72
2022/10/27 07:31:46;;;;;;;0.80;0.80;;;17.70;99.90;;;;;;5075437;28;20208;-70
2022/10/27 07:34:12;;;;;;;0.60;0.60;;;19.10;99.90;;;;;;5075533;28;20167;-71
2022/10/27 07:36:37;;;;;;;0.73;0.53;;;20.30;99.90;;;;;;5075467;28;20415;-69
2022/10/27 07:39:04;;;;;;;0.73;0.73;;;21.50;99.90;;;;;;5075241;28;20428;-71
2022/10/27 07:41:29;;;;;;;0.50;0.47;;;22.50;99.90;;;;;;5075247;28;20412;-71
2022/10/27 07:43:55;;;;;;;0.63;0.60;;;23.00;99.90;;;;;;5075002;28;20382;-70
2022/10/27 07:46:21;;;;;;;2.03;0.80;;;23.50;99.90;;;;;;5075227;28;20211;-72
2022/10/27 07:48:46;;;;;;;0.40;0.40;;;24.00;99.90;;;;;;5074960;28;20193;-70
2022/10/27 07:51:12;;;;;;;0.50;0.50;;;24.60;99.90;;;;;;5074845;28;20212;-72
2022/10/27 07:53:38;;;;;;;0.67;0.60;;;25.20;92.90;;;;;;5074925;28;20170;-71
2022/10/27 07:56:03;;;;;;;1.17;0.80;;;25.80;88.70;;;;;;5075199;28;20176;-72
2022/10/27 07:58:29;;;;;;;0.50;0.50;;;26.80;92.30;;;;;;5074890;28;20260;-70
2022/10/27 08:00:57;;;;;;;1.00;0.80;;;26.90;79.40;;;;;;5073534;28;20177;-72
2022/10/27 08:03:28;;;;;;;1.77;0.87;;;27.10;74.10;;;;;;5074943;28;20169;-71
2022/10/27 08:05:54;;;;;;;0.40;0.40;;;27.30;71.10;;;;;;5074955;28;20403;-70
2022/10/27 08:08:20;;;;;;;0.83;0.77;;;27.60;69.20;;;;;;5074591;28;20515;-70
2022/10/27 08:10:49;;;;;;;1.83;0.93;;;28.00;65.60;;;;;;5074335;28;20466;-71
2022/10/27 08:13:15;;;;;;;0.73;0.53;;;28.20;65.00;;;;;;5074630;28;20420;-73
2022/10/27 08:15:41;;;;;;;0.40;0.40;;;28.60;63.70;;;;;;5074739;28;20436;-73
2022/10/27 08:18:09;;;;;;;0.90;0.50;;;29.00;62.70;;;;;;5074373;28;20407;-71
2022/10/27 08:20:40;;;;;;;0.50;0.43;;;29.30;60.20;;;;;;5074202;28;20424;-71
2022/10/27 08:23:09;;;;;;;0.37;0.37;;;29.40;58.90;;;;;;5073817;28;20411;-71
2022/10/27 08:25:35;;;;;;;0.60;0.60;;;29.70;57.70;;;;;;5074370;28;20428;-71
2022/10/27 08:28:00;;;;;;;0.73;0.40;;;30.00;57.20;;;;;;5074475;28;20473;-70
2022/10/27 08:30:28;;;;;;;1.10;0.60;;;30.50;56.70;;;;;;5073946;28;20670;-70
2022/10/27 08:32:56;;;;;;;1.17;0.60;;;30.90;55.70;;;;;;5074513;28;20239;-70
2022/10/27 08:35:22;;;;;;;0.70;0.70;;;31.00;54.40;;;;;;5072823;28;20769;-71
2022/10/27 08:37:48;;;;;;;0.40;0.40;;;30.70;53.90;;;;;;5073974;28;20399;-72
2022/10/27 08:40:14;;;;;;;0.80;0.40;;;30.40;53.90;;;;;;5073890;28;20420;-73
2022/10/27 08:43:12;;;;;;;0.40;0.40;;;30.30;53.70;;;;;;5074097;28;20630;-70
2022/10/27 08:45:57;;;;;;;0.47;0.40;;;30.30;54.00;;;;;;5018773;28;20447;-71
2022/10/27 08:48:25;;;;;;;1.80;0.60;;;30.60;54.30;;;;;;5074151;28;20408;-70
2022/10/27 08:50:52;;;;;;;1.00;0.70;;;31.10;54.10;;;;;;5073794;28;20500;-72
2022/10/27 08:53:32;;;;;;;0.50;0.50;;;31.80;52.50;;;;;;5074000;28;20412;-70
2022/10/27 08:56:05;;;;;;;0.70;0.60;;;32.30;51.00;;;;;;5073830;28;20442;-68
2022/10/27 08:58:40;;;;;;;0.60;0.60;;;32.50;49.60;;;;;;5073862;28;20457;-72
2022/10/27 09:01:16;;;;;;;2.53;0.77;;;32.50;49.50;;;;;;5073647;28;21005;-70
2022/10/27 09:04:06;;;;;;;0.50;0.40;;;32.70;48.70;;;;;;5073846;28;20399;-70
2022/10/27 09:06:54;;;;;;;0.40;0.40;;;33.30;48.10;;;;;;5073735;28;20461;-71
2022/10/27 09:09:25;;;;;;;0.50;0.50;;;34.00;47.60;;;;;;5073355;28;20454;-70
2022/10/27 09:12:10;;;;;;;0.73;0.60;;;34.50;46.00;;;;;;5073805;28;20498;-68
2022/10/27 09:15:10;;;;;;;0.57;0.57;;;35.00;43.60;;;;;;5073481;28;20407;-69
2022/10/27 09:18:00;;;;;;;0.90;0.60;;;35.20;44.40;;;;;;5073616;28;20770;-72
2022/10/27 09:20:35;;;;;;;0.47;0.47;;;35.30;44.30;;;;;;5073290;28;20444;-68
2022/10/27 09:23:04;;;;;;;0.70;0.70;;;35.60;44.30;;;;;;5073920;28;20402;-69
2022/10/27 09:25:31;;;;;;;0.47;0.47;;;35.80;43.50;;;;;;5073407;28;20458;-71
2022/10/27 09:27:59;;;;;;;0.70;0.50;;;35.90;42.50;;;;;;5073493;28;20869;-71
2022/10/27 09:30:31;;;;;;;1.00;0.70;;;36.00;42.10;;;;;;5073300;28;20953;-70
2022/10/27 09:32:57;;;;;;;0.40;0.40;;;36.00;42.20;;;;;;5074012;28;20458;-68
2022/10/27 09:35:25;;;;;;;0.77;0.77;;;36.00;41.40;;;;;;5079909;28;20426;-68
2022/10/27 09:37:51;;;;;;;0.63;0.63;;;36.00;40.80;;;;;;5080229;28;20744;-71
2022/10/27 09:40:22;;;;;;;0.60;0.60;;;36.00;40.40;;;;;;5079821;28;20420;-69
2022/10/27 09:42:54;;;;;;;0.60;0.60;;;35.60;40.40;;;;;;5078870;28;20801;-71
2022/10/27 09:45:27;;;;;;;0.40;0.37;;;35.20;40.50;;;;;;5080245;28;20487;-69
2022/10/27 09:47:58;;;;;;;0.53;0.50;;;35.00;40.50;;;;;;5080063;28;20819;-68
2022/10/27 09:50:35;;;;;;;0.60;0.60;;;34.90;38.50;;;;;;5079706;28;20432;-70
2022/10/27 09:53:03;;;;;;;0.43;0.43;;;35.00;38.10;;;;;;5079976;28;20484;-71
2022/10/27 09:55:51;;;;;;;1.07;0.70;;;34.90;39.00;;;;;;5079950;28;20411;-70
2022/10/27 09:58:18;;;;;;;0.80;0.60;;;34.70;39.90;;;;;;5079895;28;20892;-70
2022/10/27 10:00:44;;;;;;;0.40;0.40;;;34.40;41.20;;;;;;5079574;28;20423;-70
2022/10/27 10:03:20;;;;;;;0.40;0.40;;;34.10;40.30;;;;;;5079818;28;20762;-70
2022/10/27 10:05:57;;;;;;;0.50;0.43;;;34.00;40.40;;;;;;5079763;28;20172;-71
2022/10/27 10:08:26;;;;;;;0.50;0.50;;;34.00;42.40;;;;;;5079936;28;20738;-69
2022/10/27 10:10:53;;;;;;;1.67;0.97;;;33.60;41.80;;;;;;5079496;28;20802;-69
2022/10/27 10:13:21;;;;;;;0.50;0.50;;;33.10;43.70;;;;;;5079858;28;20751;-68
2022/10/27 10:15:47;;;;;;;0.40;0.40;;;32.80;46.70;;;;;;5079871;28;20568;-71
2022/10/27 10:18:28;;;;;;;0.40;0.40;;;32.70;45.50;;;;;;5079871;28;20516;-71
2022/10/27 10:21:00;;;;;;;0.50;0.50;;;32.80;45.10;;;;;;5079713;28;20622;-69
2022/10/27 10:23:33;;;;;;;0.60;0.43;;;32.40;46.80;;;;;;5079566;28;20453;-69
2022/10/27 10:26:00;;;;;;;0.40;0.40;;;32.00;47.70;;;;;;5079504;28;20415;-67
2022/10/27 10:28:33;;;;;;;0.40;0.40;;;31.50;48.30;;;;;;5079642;28;20481;-70
2022/10/27 10:31:01;;;;;;;1.27;0.70;;;30.90;47.90;;;;;;5079455;28;20418;-69
2022/10/27 10:33:35;;;;;;;0.67;0.47;;;30.30;49.90;;;;;;5079614;28;20408;-69
2022/10/27 10:36:24;;;;;;;0.97;0.70;;;29.70;50.20;;;;;;5079734;28;20399;-69
2022/10/27 10:38:55;;;;;;;0.80;0.50;;;29.20;48.90;;;;;;5079441;28;20411;-70
2022/10/27 10:41:22;;;;;;;0.40;0.40;;;28.80;50.50;;;;;;5079422;28;20435;-69
2022/10/27 10:44:11;;;;;;;0.47;0.40;;;28.50;53.30;;;;;;5079436;28;20414;-66
2022/10/27 10:46:51;;;;;;;1.00;0.87;;;28.10;53.20;;;;;;5075761;28;20400;-70
2022/10/27 10:49:22;;;;;;;0.60;0.50;;;27.90;54.60;;;;;;5076121;28;20435;-69
2022/10/27 10:51:59;;;;;;;0.77;0.50;;;27.40;56.10;;;;;;5076156;28;20530;-70
2022/10/27 10:54:35;;;;;;;0.60;0.60;;;26.80;52.20;;;;;;5076050;28;20410;-71
2022/10/27 10:57:02;;;;;;;0.33;0.33;;;26.50;55.80;;;;;;5076142;28;20404;-67
2022/10/27 10:59:30;;;;;;;1.13;0.70;;;26.00;55.10;;;;;;5075721;28;20472;-69
2022/10/27 11:02:21;;;;;;;0.73;0.73;;;25.70;54.10;;;;;;5076099;28;20410;-70
2022/10/27 11:04:47;;;;;;;0.60;0.50;;;25.30;56.30;;;;;;5075890;28;20450;-71
2022/10/27 11:07:19;;;;;;;0.30;0.30;;;25.10;56.20;;;;;;5075894;28;20410;-69
2022/10/27 11:09:47;;;;;;;0.40;0.40;;;25.00;58.00;;;;;;5075621;28;20434;-71
2022/10/27 11:12:38;;;;;;;0.50;0.50;;;24.90;56.10;;;;;;5075829;28;20447;-70
2022/10/27 11:15:16;;;;;;;0.50;0.50;;;24.80;55.90;;;;;;5075898;28;20363;-69
2022/10/27 11:17:44;;;;;;;0.73;0.73;;;24.60;54.30;;;;;;5076146;28;20798;-69
2022/10/27 11:20:21;;;;;;;0.40;0.40;;;24.40;52.90;;;;;;5075463;28;20416;-69
2022/10/27 11:22:50;;;;;;;0.50;0.50;;;24.10;53.90;;;;;;5075879;28;20374;-70
2022/10/27 11:25:29;;;;;;;0.40;0.40;;;24.10;55.60;;;;;;5075517;28;20386;-70
2022/10/27 11:28:03;;;;;;;2.10;2.00;;;24.10;57.90;;;;;;5075505;28;20494;-71
2022/10/27 11:30:32;;;;;;;0.40;0.40;;;24.10;55.20;;;;;;5075165;28;20427;-69
2022/10/27 11:33:23;;;;;;;0.60;0.50;;;23.90;55.20;;;;;;5075507;28;20576;-67
2022/10/27 11:36:20;;;;;;;0.40;0.40;;;23.60;55.10;;;;;;5075793;28;20767;-69
2022/10/27 11:39:08;;;;;;;0.43;0.43;;;23.30;67.30;;;;;;5053138;28;20401;-70
2022/10/27 11:41:46;;;;;;;0.80;0.67;;;23.30;53.10;;;;;;5075525;28;20370;-70
2022/10/27 11:44:19;;;;;;;0.40;0.40;;;23.30;53.10;;;;;;5075357;28;20418;-69
2022/10/27 11:47:22;;;;;;;1.17;0.87;;;23.30;51.80;;;;;;5075741;28;20792;-67
2022/10/27 11:50:09;;;;;;;0.80;0.40;;;23.30;51.80;;;;;;5053674;28;20435;-68
2022/10/27 11:52:43;;;;;;;0.70;0.70;;;23.30;56.10;;;;;;5075152;28;21002;-70
2022/10/27 11:55:13;;;;;;;0.40;0.40;;;23.30;57.70;;;;;;5075206;28;20475;-67
2022/10/27 11:57:42;;;;;;;0.60;0.60;;;23.20;54.80;;;;;;5073803;28;20498;-67
2022/10/27 12:00:18;;;;;;;0.40;0.40;;;23.20;53.20;;;;;;5074646;28;20434;-70
2022/10/27 12:02:46;;;;;;;0.60;0.60;;;23.10;51.80;;;;;;5074977;28;20908;-69
2022/10/27 12:05:20;;;;;;;15.60;1.70;;;23.00;54.80;;;;;;5074865;28;20417;-68
2022/10/27 12:08:02;;;;;;;1.17;0.73;;;22.80;52.70;;;;;;5074884;28;20817;-67
2022/10/27 12:10:55;;;;;;;0.40;0.40;;;22.80;54.60;;;;;;5074539;28;20807;-70
2022/10/27 12:13:40;;;;;;;0.37;0.37;;;22.90;53.60;;;;;;5074715;28;20769;-69
2022/10/27 12:16:14;;;;;;;0.60;0.60;;;23.00;54.20;;;;;;5074724;28;20401;-70
2022/10/27 12:18:57;;;;;;;0.50;0.50;;;23.20;74.00;;;;;;5074438;28;20884;-68
2022/10/27 12:21:44;;;;;;;0.70;0.70;;;23.00;54.80;;;;;;5074632;28;20753;-70
2022/10/27 12:24:29;;;;;;;0.87;0.87;;;23.00;54.70;;;;;;5074511;28;20394;-70
2022/10/27 12:27:24;;;;;;;0.40;0.40;;;22.90;56.40;;;;;;5074322;28;20422;-72
2022/10/27 12:29:55;;;;;;;1.43;0.70;;;22.90;56.20;;;;;;5071813;28;20426;-70
2022/10/27 12:32:30;;;;;;;0.40;0.40;;;22.80;55.70;;;;;;5074017;28;20545;-71
2022/10/27 12:35:09;;;;;;;0.73;0.73;;;22.70;55.70;;;;;;5074355;28;20491;-73
2022/10/27 12:37:51;;;;;;;0.40;0.40;;;22.60;56.40;;;;;;5072946;28;20923;-71
2022/10/27 12:40:34;;;;;;;0.67;0.57;;;22.50;56.30;;;;;;5073838;28;20495;-72
2022/10/27 12:43:09;;;;;;;0.83;0.83;;;22.30;56.40;;;;;;5072724;28;20509;-70
2022/10/27 12:45:35;;;;;;;0.50;0.40;;;22.20;56.00;;;;;;5073959;28;20550;-69
2022/10/27 12:48:22;;;;;;;0.40;0.40;;;22.10;55.80;;;;;;5073987;28;20476;-73
2022/10/27 12:51:20;;;;;;;0.87;0.60;;;22.10;56.10;;;;;;5073756;28;20523;-72
2022/10/27 12:53:52;;;;;;;1.17;0.70;;;22.00;57.30;;;;;;5074252;28;20396;-70
2022/10/27 12:56:36;;;;;;;0.50;0.40;;;21.90;55.70;;;;;;5074043;28;20918;-73
2022/10/27 12:59:08;;;;;;;0.37;0.37;;;21.80;54.70;;;;;;5073710;28;20415;-70
2022/10/27 13:01:52;;;;;;;0.43;0.43;;;21.80;56.00;;;;;;5073881;28;20397;-70
2022/10/27 13:04:38;;;;;;;1.80;1.03;;;21.80;56.60;;;;;;5073724;28;20764;-71
2022/10/27 13:07:34;;;;;;;0.70;0.50;;;21.50;58.70;;;;;;5022979;28;20616;-69